Time;durP1;ratioP1;P1;durP2;ratioP2;P2;SDS_P1;SDS_P2;PMS_P1;PMS_P2;Temp;Humidity;BMP_temperature;BMP_pressure;BME280_temperature;BME280_humidity;BME280_pressure;Samples;Min_cycle;Max_cycle;Signal;HPM_P1;HPM_P2
2023/10/07 00:00:32;;;;;;;8.35;3.88;;;15.60;99.90;;;;;;5035764;28;20656;-71
2023/10/07 00:03:00;;;;;;;6.95;3.25;;;15.60;99.90;;;;;;5031312;28;20208;-70
2023/10/07 00:05:35;;;;;;;9.63;3.10;;;15.50;99.90;;;;;;5029490;28;20196;-71
2023/10/07 00:08:03;;;;;;;9.15;3.90;;;15.50;99.90;;;;;;5027685;28;20256;-71
2023/10/07 00:10:31;;;;;;;5.57;3.33;;;15.60;99.90;;;;;;5027502;28;20284;-71
2023/10/07 00:13:00;;;;;;;11.07;3.55;;;15.60;99.90;;;;;;5016597;28;20751;-71
2023/10/07 00:15:30;;;;;;;9.95;3.13;;;15.50;99.90;;;;;;5028337;28;20224;-71
2023/10/07 00:18:00;;;;;;;9.10;3.88;;;15.40;99.90;;;;;;5015590;28;20288;-71
2023/10/07 00:20:28;;;;;;;4.35;2.97;;;15.30;99.90;;;;;;5016854;28;20294;-71
2023/10/07 00:23:00;;;;;;;6.93;2.85;;;15.30;99.90;;;;;;5027770;28;20263;-70
2023/10/07 00:25:30;;;;;;;8.43;3.47;;;15.30;99.90;;;;;;5028636;28;20698;-71
2023/10/07 00:27:58;;;;;;;9.48;4.30;;;15.30;99.90;;;;;;5032150;28;20644;-71
2023/10/07 00:30:28;;;;;;;7.50;4.10;;;15.30;99.90;;;;;;5028139;28;20197;-72
2023/10/07 00:32:55;;;;;;;5.40;2.97;;;15.10;99.90;;;;;;5028597;28;20207;-70
2023/10/07 00:35:23;;;;;;;6.43;3.92;;;15.10;99.90;;;;;;5030087;28;20211;-70
2023/10/07 00:37:50;;;;;;;10.90;4.43;;;15.20;99.90;;;;;;5030857;28;20223;-70
2023/10/07 00:40:31;;;;;;;7.97;3.27;;;15.10;99.90;;;;;;5024216;28;20205;-70
2023/10/07 00:42:58;;;;;;;3.85;2.72;;;15.00;99.90;;;;;;5025056;28;20227;-71
2023/10/07 00:45:25;;;;;;;5.53;3.20;;;15.10;99.90;;;;;;5030713;28;20246;-70
2023/10/07 00:47:54;;;;;;;5.43;3.47;;;15.10;99.90;;;;;;5029658;28;20204;-70
2023/10/07 00:50:22;;;;;;;6.47;4.13;;;15.00;99.90;;;;;;5029927;28;20262;-70
2023/10/07 00:55:30;;;;;;;6.50;2.83;;;15.00;99.90;;;;;;5028807;28;20197;-81
2023/10/07 00:58:35;;;;;;;9.37;3.70;;;14.90;99.90;;;;;;5029070;28;20192;-72
2023/10/07 01:00:55;;;;;;;5.90;2.53;;;14.90;99.90;;;;;;5024083;28;20821;-70
2023/10/07 01:08:35;;;;;;;7.87;3.50;;;14.90;99.90;;;;;;5029125;28;20554;-68
2023/10/07 01:11:19;;;;;;;10.00;4.33;;;14.90;99.90;;;;;;5028971;28;20298;-72
2023/10/07 01:13:56;;;;;;;7.13;3.60;;;14.90;99.90;;;;;;5028905;28;20211;-69
2023/10/07 01:21:34;;;;;;;14.77;3.95;;;15.00;99.90;;;;;;5025379;28;20666;-71
2023/10/07 01:24:06;;;;;;;13.65;6.82;;;15.00;99.90;;;;;;5008085;28;20306;-71
2023/10/07 01:26:44;;;;;;;16.27;7.90;;;14.90;99.90;;;;;;5024855;28;20188;-70
2023/10/07 01:29:15;;;;;;;5.75;3.25;;;14.90;99.90;;;;;;5029333;28;20275;-67
2023/10/07 01:34:47;;;;;;;4.05;3.00;;;15.00;99.90;;;;;;5017308;28;20196;-67
2023/10/07 01:37:25;;;;;;;4.40;2.70;;;14.90;99.90;;;;;;5027521;28;20187;-77
2023/10/07 01:39:52;;;;;;;5.33;2.93;;;15.00;99.90;;;;;;5025642;28;20200;-72
2023/10/07 01:42:26;;;;;;;9.10;4.68;;;14.90;99.90;;;;;;5018462;28;20554;-72
2023/10/07 01:44:58;;;;;;;2.40;2.13;;;14.90;99.90;;;;;;5025955;28;20209;-70
2023/10/07 01:47:25;;;;;;;7.57;3.00;;;14.90;99.90;;;;;;5009220;28;20251;-71
2023/10/07 01:49:54;;;;;;;4.90;3.23;;;14.90;99.90;;;;;;5025189;28;20197;-65
2023/10/07 01:52:26;;;;;;;5.87;2.77;;;15.00;99.90;;;;;;5023158;28;20184;-64
2023/10/07 01:54:55;;;;;;;5.57;2.80;;;15.20;99.90;;;;;;5025431;28;20209;-63
2023/10/07 01:57:22;;;;;;;7.87;3.73;;;15.10;99.90;;;;;;5023604;28;20540;-63
2023/10/07 01:59:52;;;;;;;7.57;3.28;;;15.10;99.90;;;;;;5025545;28;20200;-64
2023/10/07 02:06:05;;;;;;;6.13;3.70;;;14.90;99.90;;;;;;5021123;28;21408;-63
2023/10/07 02:08:32;;;;;;;5.85;2.75;;;15.00;99.90;;;;;;5025742;28;20231;-63
2023/10/07 02:10:59;;;;;;;4.23;2.93;;;14.90;99.90;;;;;;5015580;28;20673;-63
2023/10/07 02:13:30;;;;;;;5.53;2.80;;;14.90;99.90;;;;;;5027395;28;20647;-69
2023/10/07 02:15:57;;;;;;;7.50;2.67;;;14.90;99.90;;;;;;5022718;28;20279;-69
2023/10/07 02:18:27;;;;;;;8.10;3.00;;;14.90;99.90;;;;;;5017294;28;20185;-69
2023/10/07 02:21:07;;;;;;;3.73;2.63;;;15.00;99.90;;;;;;5025927;28;20489;-63
2023/10/07 02:23:43;;;;;;;3.58;2.42;;;15.10;99.90;;;;;;5022939;28;20212;-63
2023/10/07 02:26:17;;;;;;;4.47;2.50;;;15.10;99.90;;;;;;5025735;28;20204;-65
2023/10/07 02:28:45;;;;;;;6.93;2.87;;;15.10;99.90;;;;;;5024783;28;20188;-62
2023/10/07 02:31:17;;;;;;;4.40;2.65;;;15.10;99.90;;;;;;5008556;28;20677;-68
2023/10/07 02:33:46;;;;;;;7.15;2.83;;;15.00;99.90;;;;;;5010895;28;20629;-67
2023/10/07 02:36:27;;;;;;;10.27;3.35;;;15.10;99.90;;;;;;5006020;28;20224;-63
2023/10/07 02:39:04;;;;;;;10.82;3.35;;;15.30;99.90;;;;;;5024505;28;20269;-63
2023/10/07 02:41:34;;;;;;;6.70;3.05;;;15.20;99.90;;;;;;5010573;28;20688;-69
2023/10/07 02:44:05;;;;;;;7.23;2.97;;;15.10;99.90;;;;;;5025948;28;20422;-68
2023/10/07 02:46:32;;;;;;;7.07;2.80;;;15.20;99.90;;;;;;5025720;28;20265;-63
2023/10/07 02:49:09;;;;;;;7.32;2.85;;;15.20;99.90;;;;;;5026074;28;20511;-63
2023/10/07 02:51:55;;;;;;;6.82;2.55;;;15.30;99.90;;;;;;5029048;28;20196;-63
2023/10/07 02:54:32;;;;;;;4.88;3.05;;;15.30;99.90;;;;;;5028043;28;20653;-64
2023/10/07 02:59:50;;;;;;;7.15;3.28;;;15.40;99.90;;;;;;5021457;28;20730;-63
2023/10/07 03:04:58;;;;;;;9.38;2.67;;;15.30;99.90;;;;;;5027185;28;20216;-66
2023/10/07 03:07:26;;;;;;;8.67;3.43;;;15.40;99.90;;;;;;5029110;28;20258;-69
2023/10/07 03:10:05;;;;;;;6.40;2.43;;;15.30;99.90;;;;;;5029146;28;20200;-64
2023/10/07 03:12:36;;;;;;;5.88;2.95;;;15.50;99.90;;;;;;5028212;28;20203;-64
2023/10/07 03:15:20;;;;;;;10.27;3.17;;;15.50;99.90;;;;;;5028437;28;20285;-64
2023/10/07 03:17:49;;;;;;;5.10;3.53;;;15.40;99.90;;;;;;5030684;28;20218;-64
2023/10/07 03:28:30;;;;;;;6.50;3.10;;;15.30;99.90;;;;;;5028214;28;20239;-65
2023/10/07 03:30:57;;;;;;;11.27;3.90;;;15.40;99.90;;;;;;5028934;28;20707;-64
2023/10/07 03:33:58;;;;;;;5.45;3.80;;;15.40;99.90;;;;;;5040597;28;20200;-63
2023/10/07 03:38:57;;;;;;;8.60;4.63;;;15.40;99.90;;;;;;5030404;28;20223;-63
2023/10/07 03:41:25;;;;;;;10.63;5.55;;;15.40;99.90;;;;;;5009172;28;20311;-63
2023/10/07 03:43:52;;;;;;;11.32;5.60;;;15.30;99.90;;;;;;5029499;28;20219;-63
2023/10/07 03:46:26;;;;;;;20.52;9.68;;;15.20;99.90;;;;;;5028113;28;20192;-68
2023/10/07 03:48:55;;;;;;;11.35;7.20;;;15.30;99.90;;;;;;5028308;28;20195;-68
2023/10/07 03:51:23;;;;;;;17.30;8.20;;;15.30;99.90;;;;;;5029399;28;20518;-68
2023/10/07 03:53:54;;;;;;;15.32;7.55;;;15.40;99.90;;;;;;5012841;28;20196;-69
2023/10/07 03:56:22;;;;;;;8.70;4.90;;;15.40;99.90;;;;;;5027411;28;20258;-70
2023/10/07 03:58:50;;;;;;;11.43;5.78;;;15.50;99.90;;;;;;5029494;28;20678;-71
2023/10/07 04:01:17;;;;;;;8.18;4.72;;;15.50;99.90;;;;;;5027563;28;20558;-69
2023/10/07 04:03:50;;;;;;;13.32;8.77;;;15.60;99.90;;;;;;5028385;28;20188;-69
2023/10/07 04:06:20;;;;;;;11.32;6.00;;;15.70;99.90;;;;;;5020767;28;20220;-69
2023/10/07 04:08:53;;;;;;;10.60;6.65;;;15.60;99.90;;;;;;5029994;28;20231;-69
2023/10/07 04:11:26;;;;;;;12.73;7.15;;;16.00;99.90;;;;;;5020016;28;20683;-70
2023/10/07 04:13:55;;;;;;;15.43;7.55;;;16.00;99.90;;;;;;5029155;28;20197;-69
2023/10/07 04:16:23;;;;;;;12.68;7.32;;;15.90;99.90;;;;;;5030155;28;20205;-69
2023/10/07 04:21:42;;;;;;;15.82;7.65;;;16.00;99.90;;;;;;4981019;28;20212;-69
2023/10/07 04:24:11;;;;;;;11.07;7.75;;;16.20;99.90;;;;;;5027566;28;20223;-69
2023/10/07 04:26:39;;;;;;;10.82;7.05;;;16.30;99.90;;;;;;5026293;28;20198;-70
2023/10/07 04:29:08;;;;;;;14.93;8.27;;;16.20;99.90;;;;;;5028416;28;20188;-70
2023/10/07 04:31:37;;;;;;;10.18;6.80;;;16.10;99.90;;;;;;5010012;28;20197;-68
2023/10/07 04:34:15;;;;;;;15.00;8.60;;;16.00;99.90;;;;;;5023409;28;20188;-69
2023/10/07 04:39:29;;;;;;;15.02;8.63;;;16.20;99.90;;;;;;5021951;28;20196;-69
2023/10/07 04:41:57;;;;;;;13.20;7.85;;;16.00;99.90;;;;;;5026031;28;20196;-69
2023/10/07 04:47:34;;;;;;;14.52;6.85;;;15.90;99.90;;;;;;5022334;28;20542;-68
2023/10/07 04:52:33;;;;;;;8.85;6.32;;;15.90;99.90;;;;;;5027483;28;20196;-69
2023/10/07 04:55:02;;;;;;;19.38;7.68;;;15.80;99.90;;;;;;5027529;28;20541;-63
2023/10/07 04:58:17;;;;;;;11.85;6.85;;;15.70;99.90;;;;;;5024381;28;20207;-69
2023/10/07 05:03:14;;;;;;;11.98;7.50;;;15.70;99.90;;;;;;5025455;28;20266;-63
2023/10/07 05:05:46;;;;;;;16.80;7.97;;;15.70;99.90;;;;;;5020231;28;20560;-64
2023/10/07 05:08:19;;;;;;;14.43;6.82;;;15.70;99.90;;;;;;5026055;28;20286;-63
2023/10/07 05:10:52;;;;;;;12.40;6.57;;;15.60;99.90;;;;;;5024793;28;21159;-66
2023/10/07 05:13:21;;;;;;;17.15;8.02;;;15.60;99.90;;;;;;5027442;28;20213;-63
2023/10/07 05:15:48;;;;;;;11.38;7.68;;;15.70;99.90;;;;;;5027552;28;20224;-63
2023/10/07 05:18:16;;;;;;;14.20;8.23;;;15.60;99.90;;;;;;5022050;28;20207;-62
2023/10/07 05:20:47;;;;;;;20.88;8.20;;;15.60;99.90;;;;;;5023955;28;20579;-63
2023/10/07 05:23:14;;;;;;;18.63;7.72;;;15.70;99.90;;;;;;5025446;28;20215;-63
2023/10/07 05:25:48;;;;;;;12.27;8.63;;;15.70;99.90;;;;;;5023225;28;20266;-63
2023/10/07 05:28:20;;;;;;;13.52;6.93;;;15.70;99.90;;;;;;5025606;28;20214;-63
2023/10/07 05:30:51;;;;;;;18.67;7.55;;;15.70;99.90;;;;;;5023973;28;20203;-65
2023/10/07 05:33:27;;;;;;;14.40;7.85;;;15.70;99.90;;;;;;5021491;28;20250;-64
2023/10/07 05:36:14;;;;;;;14.55;8.73;;;15.70;99.90;;;;;;5010811;28;20310;-64
2023/10/07 05:38:44;;;;;;;12.38;8.75;;;15.70;99.90;;;;;;5025578;28;20958;-65
2023/10/07 05:41:14;;;;;;;12.32;7.07;;;15.80;99.90;;;;;;5031522;28;20279;-69
2023/10/07 05:43:44;;;;;;;14.45;8.23;;;15.80;99.90;;;;;;5024143;28;20188;-67
2023/10/07 05:46:12;;;;;;;15.70;7.45;;;15.70;99.90;;;;;;5027320;28;20692;-69
2023/10/07 05:48:40;;;;;;;15.48;9.27;;;15.70;99.90;;;;;;5025250;28;20218;-64
2023/10/07 05:51:08;;;;;;;18.67;11.13;;;15.80;99.90;;;;;;5027579;28;20684;-63
2023/10/07 05:53:39;;;;;;;15.07;8.63;;;15.80;99.90;;;;;;5026358;28;20212;-64
2023/10/07 05:56:07;;;;;;;16.30;8.45;;;15.90;99.90;;;;;;5024712;28;20204;-64
2023/10/07 05:58:38;;;;;;;20.42;11.23;;;15.70;99.90;;;;;;5027321;28;20200;-66
2023/10/07 06:01:12;;;;;;;17.17;9.73;;;15.70;99.90;;;;;;5026872;28;20668;-65
2023/10/07 06:03:39;;;;;;;17.13;8.77;;;15.70;99.90;;;;;;5028334;28;20199;-64
2023/10/07 06:06:07;;;;;;;17.63;8.57;;;15.70;99.90;;;;;;5026932;28;20318;-64
2023/10/07 06:08:40;;;;;;;15.95;10.23;;;15.80;99.90;;;;;;5006602;28;20282;-65
2023/10/07 06:11:10;;;;;;;16.05;10.05;;;15.80;99.90;;;;;;5024716;28;20189;-65
2023/10/07 06:13:40;;;;;;;16.92;9.88;;;15.90;99.90;;;;;;5026101;28;20215;-66
2023/10/07 06:16:08;;;;;;;19.35;10.93;;;15.90;99.90;;;;;;5028274;28;20196;-64
2023/10/07 06:18:35;;;;;;;16.92;10.05;;;15.90;99.90;;;;;;5023240;28;20621;-63
2023/10/07 06:21:27;;;;;;;23.13;11.73;;;15.90;99.90;;;;;;5028197;28;20269;-68
2023/10/07 06:23:58;;;;;;;16.00;9.07;;;16.00;99.90;;;;;;5028563;28;20525;-64
2023/10/07 06:26:28;;;;;;;19.05;10.32;;;16.00;99.90;;;;;;5032208;28;20579;-63
2023/10/07 06:29:05;;;;;;;14.40;9.57;;;16.10;99.90;;;;;;5029704;28;20617;-63
2023/10/07 06:31:33;;;;;;;18.08;8.93;;;16.30;99.90;;;;;;5028310;28;20192;-64
2023/10/07 06:34:00;;;;;;;13.93;8.30;;;16.40;99.90;;;;;;5033804;28;20188;-65
2023/10/07 06:36:30;;;;;;;19.65;8.10;;;16.30;99.90;;;;;;5033290;28;20196;-63
2023/10/07 06:39:07;;;;;;;14.60;8.52;;;16.20;99.90;;;;;;5023901;28;20204;-64
2023/10/07 06:41:35;;;;;;;13.98;7.97;;;16.10;99.90;;;;;;5032082;28;20195;-63
2023/10/07 06:44:03;;;;;;;17.40;8.60;;;16.10;99.90;;;;;;5030399;28;20203;-64
2023/10/07 06:46:40;;;;;;;13.52;7.95;;;16.10;99.90;;;;;;5032110;28;20209;-63
2023/10/07 06:49:19;;;;;;;11.90;6.55;;;16.20;99.90;;;;;;5030476;28;20204;-63
2023/10/07 06:51:53;;;;;;;14.95;7.55;;;16.30;99.90;;;;;;5030253;28;20274;-62
2023/10/07 06:54:31;;;;;;;16.92;7.63;;;16.30;99.90;;;;;;5027763;28;20187;-64
2023/10/07 06:57:08;;;;;;;14.90;8.40;;;16.40;99.90;;;;;;5031457;28;20655;-68
2023/10/07 06:59:45;;;;;;;15.73;7.22;;;16.50;99.90;;;;;;5032164;28;20258;-62
2023/10/07 07:02:18;;;;;;;13.57;7.65;;;16.40;99.90;;;;;;5031618;28;20230;-64
2023/10/07 07:04:46;;;;;;;12.85;7.85;;;16.40;99.90;;;;;;5030497;28;20270;-65
2023/10/07 07:07:16;;;;;;;12.30;7.55;;;16.40;99.90;;;;;;5029986;28;20317;-64
2023/10/07 07:12:21;;;;;;;14.02;6.50;;;16.50;99.90;;;;;;5030805;28;20258;-63
2023/10/07 07:15:04;;;;;;;9.77;6.82;;;16.50;99.90;;;;;;5030152;28;20232;-63
2023/10/07 07:22:35;;;;;;;17.95;7.97;;;16.70;99.90;;;;;;5029208;28;20189;-63
2023/10/07 07:25:29;;;;;;;11.95;7.28;;;16.50;99.90;;;;;;5031040;28;20217;-63
2023/10/07 07:28:00;;;;;;;10.95;7.20;;;16.60;99.90;;;;;;5029798;28;20188;-66
2023/10/07 07:30:30;;;;;;;19.45;8.02;;;16.70;99.90;;;;;;5029160;28;20259;-62
2023/10/07 07:33:06;;;;;;;13.35;6.15;;;16.90;99.90;;;;;;5030157;28;20189;-69
2023/10/07 07:35:40;;;;;;;13.85;7.03;;;16.90;99.90;;;;;;5030665;28;20199;-70
2023/10/07 07:40:52;;;;;;;12.40;7.05;;;16.90;99.90;;;;;;5023724;28;20235;-67
2023/10/07 07:43:19;;;;;;;14.60;7.32;;;16.70;99.90;;;;;;5036449;28;20278;-72
2023/10/07 07:45:47;;;;;;;9.95;7.43;;;16.50;99.90;;;;;;5031956;28;20744;-69
2023/10/07 07:48:16;;;;;;;16.02;9.07;;;16.70;99.90;;;;;;5022982;28;20189;-71
2023/10/07 07:50:43;;;;;;;17.63;9.45;;;17.00;99.90;;;;;;5046121;28;20295;-71
2023/10/07 07:53:12;;;;;;;19.13;9.65;;;17.10;99.90;;;;;;5032843;28;20219;-70
2023/10/07 07:55:46;;;;;;;15.25;7.85;;;17.20;99.90;;;;;;5043507;28;20204;-70
2023/10/07 07:58:13;;;;;;;17.27;8.63;;;17.00;99.90;;;;;;5030308;28;20204;-70
2023/10/07 08:00:44;;;;;;;14.10;7.45;;;16.70;99.90;;;;;;5031248;28;20192;-71
2023/10/07 08:03:16;;;;;;;11.77;7.70;;;16.90;99.90;;;;;;5029659;28;20200;-67
2023/10/07 08:05:43;;;;;;;13.57;7.30;;;16.90;99.90;;;;;;5034712;28;20242;-67
2023/10/07 08:08:24;;;;;;;9.77;6.95;;;17.40;99.90;;;;;;5031416;28;20609;-67
2023/10/07 08:10:54;;;;;;;12.68;8.27;;;18.00;99.90;;;;;;5031132;28;20734;-69
2023/10/07 08:13:23;;;;;;;9.45;6.78;;;18.60;99.90;;;;;;5030602;28;20459;-70
2023/10/07 08:15:51;;;;;;;10.65;6.40;;;18.50;99.90;;;;;;5029497;28;20775;-72
2023/10/07 08:18:28;;;;;;;10.15;6.85;;;18.20;99.90;;;;;;5029077;28;20208;-70
2023/10/07 08:20:56;;;;;;;10.73;6.43;;;18.40;99.90;;;;;;5028811;28;20656;-69
2023/10/07 08:23:29;;;;;;;12.90;6.65;;;18.20;99.90;;;;;;5029365;28;20217;-68
2023/10/07 08:26:08;;;;;;;9.38;5.60;;;18.40;99.90;;;;;;5032941;28;20211;-64
2023/10/07 08:28:42;;;;;;;10.13;6.15;;;17.90;99.90;;;;;;5024376;28;20195;-62
2023/10/07 08:31:15;;;;;;;11.25;6.20;;;17.80;99.90;;;;;;5028090;28;20208;-62
2023/10/07 08:33:47;;;;;;;11.27;6.43;;;18.00;99.90;;;;;;5027254;28;20656;-64
2023/10/07 08:36:15;;;;;;;10.93;6.00;;;18.30;99.90;;;;;;5026297;28;20227;-63
2023/10/07 08:38:45;;;;;;;9.15;4.82;;;18.60;99.90;;;;;;5026797;28;20661;-63
2023/10/07 08:41:18;;;;;;;8.40;4.55;;;19.10;99.90;;;;;;5022352;28;20659;-68
2023/10/07 08:43:46;;;;;;;8.70;5.13;;;19.50;99.90;;;;;;5027064;28;20200;-64
2023/10/07 08:46:19;;;;;;;12.70;5.05;;;19.40;99.90;;;;;;5028921;28;20212;-69
2023/10/07 08:48:56;;;;;;;8.07;5.07;;;19.10;99.90;;;;;;5028754;28;20184;-65
2023/10/07 08:51:24;;;;;;;7.50;4.05;;;18.70;99.90;;;;;;5025444;28;20199;-64
2023/10/07 08:53:57;;;;;;;8.32;4.40;;;18.70;99.90;;;;;;5027352;28;20194;-63
2023/10/07 08:56:27;;;;;;;5.95;4.25;;;18.80;99.90;;;;;;5021971;28;20196;-66
2023/10/07 08:58:55;;;;;;;6.28;3.78;;;19.50;99.90;;;;;;5021486;28;20200;-65
2023/10/07 09:01:24;;;;;;;5.25;3.65;;;19.90;99.90;;;;;;5031534;28;20219;-63
2023/10/07 09:04:00;;;;;;;8.45;3.67;;;20.90;99.90;;;;;;5024156;28;20192;-63
2023/10/07 09:06:33;;;;;;;8.70;3.50;;;22.80;99.90;;;;;;5026422;28;20232;-63
2023/10/07 09:09:06;;;;;;;8.90;3.25;;;23.30;99.90;;;;;;5026547;28;20637;-63
2023/10/07 09:11:37;;;;;;;7.18;3.30;;;22.90;99.90;;;;;;5035167;28;20208;-64
2023/10/07 09:14:07;;;;;;;5.47;2.97;;;21.20;99.90;;;;;;5042232;28;20819;-63
2023/10/07 09:16:35;;;;;;;4.90;2.78;;;20.70;99.90;;;;;;5008818;28;20207;-63
2023/10/07 09:19:10;;;;;;;7.93;4.55;;;20.20;99.90;;;;;;5012404;28;20652;-63
2023/10/07 09:21:38;;;;;;;8.15;3.55;;;19.70;99.90;;;;;;5028251;28;20551;-65
2023/10/07 09:24:13;;;;;;;5.50;3.63;;;19.80;99.90;;;;;;5028731;28;20200;-67
2023/10/07 09:26:57;;;;;;;4.05;2.97;;;20.30;99.90;;;;;;5028573;28;20207;-68
2023/10/07 09:29:25;;;;;;;8.80;3.63;;;20.20;99.90;;;;;;5035922;28;20223;-68
2023/10/07 09:32:04;;;;;;;7.75;3.20;;;19.70;99.90;;;;;;5027813;28;20188;-67
2023/10/07 09:34:47;;;;;;;6.68;3.03;;;19.80;99.90;;;;;;5026364;28;20207;-74
2023/10/07 09:37:23;;;;;;;7.35;3.00;;;19.50;99.90;;;;;;5027049;28;20211;-73
2023/10/07 09:39:55;;;;;;;9.10;2.83;;;19.30;99.90;;;;;;5023794;28;20281;-70
2023/10/07 09:42:36;;;;;;;6.35;3.33;;;19.90;99.90;;;;;;5022145;28;20536;-77
2023/10/07 09:45:28;;;;;;;5.03;2.90;;;20.30;99.90;;;;;;5029426;28;20676;-73
2023/10/07 09:47:51;;;;;;;6.95;2.83;;;25.80;99.90;;;;;;5026083;28;20200;-70
2023/10/07 09:50:28;;;;;;;4.75;2.53;;;27.60;99.90;;;;;;5025925;28;20188;-71
2023/10/07 09:53:23;;;;;;;4.78;2.80;;;27.10;99.90;;;;;;5027199;28;20882;-71
2023/10/07 09:55:57;;;;;;;5.85;2.58;;;28.50;99.90;;;;;;5026830;28;20652;-70
2023/10/07 09:58:36;;;;;;;6.60;3.35;;;28.40;99.90;;;;;;5028510;28;20188;-71
2023/10/07 10:01:38;;;;;;;12.88;4.05;;;29.60;99.90;;;;;;5028766;28;20605;-72
2023/10/07 10:04:21;;;;;;;6.82;4.60;;;28.40;99.90;;;;;;5028369;28;21042;-71
2023/10/07 10:07:30;;;;;;;4.63;3.25;;;28.00;99.90;;;;;;5027245;28;20770;-73
2023/10/07 10:10:13;;;;;;;4.63;3.00;;;30.30;99.90;;;;;;4931816;29;20582;-71
2023/10/07 10:17:53;;;;;;;5.10;3.38;;;30.10;99.90;;;;;;5027834;28;20525;-71
2023/10/07 10:20:21;;;;;;;7.38;3.65;;;29.60;99.90;;;;;;5028243;28;20184;-71
2023/10/07 10:22:53;;;;;;;7.60;3.65;;;30.00;99.90;;;;;;5028115;28;20199;-71
2023/10/07 10:25:42;;;;;;;4.60;3.03;;;30.40;99.90;;;;;;5024702;28;20194;-70
2023/10/07 10:28:20;;;;;;;6.38;2.78;;;31.10;99.90;;;;;;5022453;28;20201;-71
2023/10/07 10:30:50;;;;;;;4.75;3.38;;;32.60;99.90;;;;;;5025184;28;20668;-71
2023/10/07 10:33:21;;;;;;;6.82;3.17;;;31.70;99.90;;;;;;5024452;28;20267;-71
2023/10/07 10:35:55;;;;;;;6.50;2.70;;;31.60;99.90;;;;;;5028407;28;20196;-73
2023/10/07 10:38:22;;;;;;;2.63;2.08;;;30.80;99.90;;;;;;5022524;28;20207;-70
2023/10/07 10:40:49;;;;;;;8.70;2.90;;;30.20;99.90;;;;;;5027407;28;20608;-74
2023/10/07 10:43:23;;;;;;;4.75;2.30;;;30.30;99.90;;;;;;5026594;28;20195;-70
2023/10/07 10:46:07;;;;;;;7.47;2.90;;;30.90;99.90;;;;;;5028720;28;20515;-71
2023/10/07 10:48:41;;;;;;;5.15;2.55;;;30.70;99.90;;;;;;5038825;28;20196;-69
2023/10/07 10:51:08;;;;;;;6.20;3.55;;;29.00;99.90;;;;;;5025706;28;20185;-70
2023/10/07 10:53:46;;;;;;;10.13;4.50;;;29.20;99.90;;;;;;5026284;28;20185;-69
2023/10/07 10:56:13;;;;;;;4.15;3.03;;;29.90;99.90;;;;;;5033795;28;20683;-70
2023/10/07 10:58:41;;;;;;;5.07;3.42;;;28.60;99.90;;;;;;5020488;28;21069;-68
2023/10/07 11:01:08;;;;;;;3.83;2.92;;;28.20;99.90;;;;;;5020149;28;20223;-70
2023/10/07 11:03:38;;;;;;;7.20;2.83;;;28.30;99.90;;;;;;5009668;28;20244;-71
2023/10/07 11:06:10;;;;;;;5.32;2.60;;;27.10;99.90;;;;;;4999321;28;20231;-70
2023/10/07 11:08:37;;;;;;;4.57;2.53;;;27.30;99.90;;;;;;5013719;28;20290;-69
2023/10/07 11:11:10;;;;;;;4.25;2.78;;;27.70;99.90;;;;;;5021394;28;20200;-78
2023/10/07 11:13:39;;;;;;;4.55;2.75;;;29.00;99.90;;;;;;5013145;28;20205;-72
2023/10/07 11:16:09;;;;;;;3.65;2.40;;;28.80;99.90;;;;;;5026503;28;20231;-72
2023/10/07 11:18:41;;;;;;;5.20;2.30;;;28.90;99.90;;;;;;5019163;28;20188;-72
2023/10/07 11:21:15;;;;;;;6.45;2.28;;;28.30;99.90;;;;;;5019334;28;20295;-69
2023/10/07 11:23:50;;;;;;;3.22;1.90;;;27.00;99.90;;;;;;5024436;28;21061;-70
2023/10/07 11:26:17;;;;;;;3.30;2.10;;;27.50;99.90;;;;;;5024514;28;20219;-70
2023/10/07 11:28:44;;;;;;;3.92;2.42;;;28.00;99.90;;;;;;5020592;28;20204;-69
2023/10/07 11:31:11;;;;;;;4.90;2.58;;;27.00;99.90;;;;;;5019895;28;20197;-68
2023/10/07 11:33:51;;;;;;;5.00;2.65;;;24.40;99.90;;;;;;5026352;28;20208;-69
2023/10/07 11:36:19;;;;;;;3.47;2.30;;;23.50;99.90;;;;;;5015510;28;20627;-76
2023/10/07 11:38:46;;;;;;;2.75;2.20;;;23.20;99.90;;;;;;5027294;28;20200;-70
2023/10/07 11:41:16;;;;;;;4.75;1.88;;;22.90;99.90;;;;;;5027870;28;20192;-80
2023/10/07 11:43:43;;;;;;;5.53;2.00;;;22.80;99.90;;;;;;5024592;28;20280;-64
2023/10/07 11:46:13;;;;;;;3.58;1.98;;;22.40;99.90;;;;;;5018048;28;20224;-64
2023/10/07 11:48:44;;;;;;;5.30;1.92;;;22.00;99.90;;;;;;5007766;28;20201;-65
2023/10/07 11:51:12;;;;;;;3.22;2.30;;;22.00;99.90;;;;;;5029330;28;20231;-63
2023/10/07 11:53:42;;;;;;;3.13;2.15;;;21.80;99.90;;;;;;5025358;28;20199;-66
2023/10/07 11:56:14;;;;;;;2.55;1.90;;;22.00;99.90;;;;;;5027228;28;20264;-70
2023/10/07 11:58:42;;;;;;;4.10;1.85;;;22.40;99.90;;;;;;5026570;28;20200;-68
2023/10/07 12:01:09;;;;;;;3.92;2.17;;;23.10;99.90;;;;;;5022188;28;20192;-76
2023/10/07 12:03:38;;;;;;;5.20;2.22;;;23.10;99.90;;;;;;5046577;28;20542;-76
2023/10/07 12:06:05;;;;;;;3.60;2.00;;;23.50;99.90;;;;;;5030878;28;20220;-71
2023/10/07 12:08:34;;;;;;;9.52;1.85;;;23.00;99.90;;;;;;5030488;28;20703;-69
2023/10/07 12:11:04;;;;;;;7.80;2.05;;;23.20;99.90;;;;;;5025120;28;20262;-71
2023/10/07 12:13:32;;;;;;;3.22;1.90;;;23.10;99.90;;;;;;5028626;28;20303;-69
2023/10/07 12:16:00;;;;;;;2.50;1.80;;;23.20;99.90;;;;;;5028006;28;20204;-70
2023/10/07 12:18:31;;;;;;;3.47;2.00;;;22.80;99.90;;;;;;5029609;28;20219;-69
2023/10/07 12:21:00;;;;;;;3.00;1.85;;;22.80;99.90;;;;;;5033509;28;20632;-69
2023/10/07 12:23:33;;;;;;;4.25;1.92;;;22.70;99.90;;;;;;5023715;28;20628;-69
2023/10/07 12:26:01;;;;;;;6.15;2.85;;;22.70;99.90;;;;;;5030546;28;20244;-69
2023/10/07 12:28:30;;;;;;;5.10;3.03;;;22.70;99.90;;;;;;5029540;28;20192;-69
2023/10/07 12:30:57;;;;;;;7.35;3.28;;;23.00;99.90;;;;;;5030356;28;20192;-70
2023/10/07 12:33:26;;;;;;;7.50;4.05;;;23.00;99.90;;;;;;5021731;28;20660;-71
2023/10/07 12:36:16;;;;;;;4.45;2.28;;;22.90;99.90;;;;;;5022204;28;20207;-70
2023/10/07 12:38:43;;;;;;;3.88;2.97;;;22.30;99.90;;;;;;5035029;28;20200;-70
2023/10/07 12:41:13;;;;;;;6.35;2.30;;;22.20;99.90;;;;;;5020142;28;21414;-76
2023/10/07 12:43:40;;;;;;;5.32;2.55;;;22.20;99.90;;;;;;5028304;28;20794;-68
2023/10/07 12:46:10;;;;;;;5.05;2.33;;;22.10;99.90;;;;;;5028421;28;20219;-68
2023/10/07 12:48:40;;;;;;;7.45;4.38;;;21.90;99.90;;;;;;5021924;28;20690;-69
2023/10/07 12:51:08;;;;;;;6.85;2.63;;;21.80;99.90;;;;;;5029242;28;20208;-68
2023/10/07 12:53:36;;;;;;;6.05;3.38;;;22.00;99.90;;;;;;5031265;28;20207;-69
2023/10/07 12:56:13;;;;;;;3.70;2.50;;;22.00;99.90;;;;;;5031043;28;20741;-69
2023/10/07 12:58:42;;;;;;;4.10;2.60;;;22.20;99.90;;;;;;5030763;28;20535;-68
2023/10/07 13:01:11;;;;;;;4.10;2.70;;;22.50;99.90;;;;;;5024487;28;20648;-69
2023/10/07 13:03:41;;;;;;;3.63;2.55;;;22.60;99.90;;;;;;5036975;28;20202;-70
2023/10/07 13:06:10;;;;;;;3.80;3.08;;;22.50;99.90;;;;;;5043025;28;20251;-72
2023/10/07 13:08:40;;;;;;;7.90;3.65;;;22.50;99.90;;;;;;5037652;28;20281;-72
2023/10/07 13:11:11;;;;;;;14.57;4.50;;;22.60;99.90;;;;;;5039873;28;20264;-71
2023/10/07 13:13:39;;;;;;;6.28;3.38;;;22.60;99.90;;;;;;5036588;28;20188;-69
2023/10/07 13:16:14;;;;;;;6.32;3.90;;;22.40;99.90;;;;;;5033348;28;20292;-70
2023/10/07 13:18:42;;;;;;;5.03;3.25;;;22.00;99.90;;;;;;5036034;28;20263;-68
2023/10/07 13:21:18;;;;;;;5.93;3.17;;;22.00;99.90;;;;;;5040615;28;20195;-69
2023/10/07 13:23:46;;;;;;;4.65;2.90;;;22.20;99.90;;;;;;5039003;28;20593;-69
2023/10/07 13:26:14;;;;;;;6.70;3.22;;;22.40;99.90;;;;;;5042693;28;20204;-64
2023/10/07 13:28:42;;;;;;;4.93;2.95;;;22.30;99.90;;;;;;5037816;28;20210;-64
2023/10/07 13:31:10;;;;;;;4.82;3.25;;;22.20;99.90;;;;;;5038702;28;20200;-65
2023/10/07 13:33:37;;;;;;;9.32;5.10;;;22.20;99.90;;;;;;5033554;28;20214;-64
2023/10/07 13:36:08;;;;;;;7.18;4.65;;;22.10;99.90;;;;;;5041009;28;20192;-67
2023/10/07 13:38:36;;;;;;;5.47;3.70;;;22.10;99.90;;;;;;5035598;28;20718;-64
2023/10/07 13:41:03;;;;;;;7.15;3.90;;;22.20;99.90;;;;;;5034262;28;20219;-65
2023/10/07 13:43:33;;;;;;;10.48;4.47;;;22.00;99.90;;;;;;5036629;28;20203;-65
2023/10/07 13:46:09;;;;;;;5.07;3.28;;;21.90;99.90;;;;;;5022459;28;20200;-64
2023/10/07 13:48:37;;;;;;;6.65;3.80;;;22.10;99.90;;;;;;5027158;28;20584;-64
2023/10/07 13:51:06;;;;;;;7.57;4.10;;;22.20;99.90;;;;;;5033103;28;20203;-66
2023/10/07 13:54:21;;;;;;;10.43;5.13;;;22.20;99.90;;;;;;5031820;28;20196;-65
2023/10/07 13:56:48;;;;;;;7.45;4.55;;;22.30;99.90;;;;;;5030864;28;20192;-65
2023/10/07 13:59:15;;;;;;;7.95;3.97;;;22.70;99.90;;;;;;5028060;28;20204;-65
2023/10/07 14:01:46;;;;;;;7.53;4.25;;;22.60;99.90;;;;;;5034592;28;20226;-63
2023/10/07 14:04:15;;;;;;;9.30;4.38;;;22.50;99.90;;;;;;5038652;28;20608;-64
2023/10/07 14:06:43;;;;;;;8.68;4.65;;;22.50;99.90;;;;;;5034887;28;20287;-66
2023/10/07 14:09:16;;;;;;;9.07;4.28;;;22.20;99.90;;;;;;5028909;28;20184;-67
2023/10/07 14:11:46;;;;;;;6.53;3.78;;;21.90;99.90;;;;;;5026457;28;20283;-67